createdAt,value
2022-08-28T00:01:22.663Z,39
2022-08-28T00:03:55.599Z,46
2022-08-28T00:06:28.300Z,41
2022-08-28T00:09:00.893Z,35
2022-08-28T00:11:33.833Z,40
2022-08-28T00:14:08.680Z,37
2022-08-28T00:16:40.569Z,44
2022-08-28T00:19:13.735Z,39
2022-08-28T00:21:46.746Z,44
2022-08-28T00:24:19.886Z,43
2022-08-28T00:26:53.046Z,40
2022-08-28T00:29:24.114Z,40
2022-08-28T00:31:57.441Z,48
2022-08-28T00:34:34.137Z,34
2022-08-28T00:37:08.002Z,35
2022-08-28T00:39:42.069Z,39
2022-08-28T00:42:15.233Z,39
2022-08-28T00:44:48.247Z,38
2022-08-28T00:47:21.250Z,43
2022-08-28T00:49:55.142Z,36
2022-08-28T00:52:26.274Z,38
2022-08-28T00:55:00.350Z,40
2022-08-28T00:57:32.821Z,42
2022-08-28T01:00:05.949Z,37
2022-08-28T01:02:39.016Z,44
2022-08-28T01:05:09.991Z,39
2022-08-28T01:07:42.463Z,40
2022-08-28T01:10:15.359Z,41
2022-08-28T01:12:48.893Z,34
2022-08-28T01:15:22.334Z,42
2022-08-28T01:17:53.323Z,41
2022-08-28T01:20:25.745Z,44
2022-08-28T01:22:59.040Z,37
2022-08-28T01:25:32.075Z,40
2022-08-28T01:28:04.650Z,44
2022-08-28T01:30:37.707Z,44
2022-08-28T01:33:12.518Z,31
2022-08-28T01:35:43.939Z,36
2022-08-28T01:38:27.300Z,40
2022-08-28T01:40:58.377Z,38
2022-08-28T01:43:31.344Z,36
2022-08-28T01:46:04.191Z,45
2022-08-28T01:48:37.222Z,39
2022-08-28T01:51:09.882Z,36
2022-08-28T01:53:46.983Z,40
2022-08-28T01:56:18.630Z,40
2022-08-28T01:58:51.727Z,31
2022-08-28T02:01:24.322Z,33
2022-08-28T02:03:57.172Z,38
2022-08-28T02:06:29.602Z,36
2022-08-28T02:09:01.703Z,39
2022-08-28T02:11:34.707Z,34
2022-08-28T02:14:07.474Z,37
2022-08-28T02:16:40.154Z,40
2022-08-28T02:19:12.073Z,37
2022-08-28T02:21:44.511Z,40
2022-08-28T02:24:17.662Z,38
2022-08-28T02:26:50.829Z,35
2022-08-28T02:29:23.923Z,36
2022-08-28T02:31:57.031Z,36
2022-08-28T02:34:30.051Z,47
2022-08-28T02:37:02.680Z,37
2022-08-28T02:39:35.283Z,43
2022-08-28T02:42:07.902Z,43
2022-08-28T02:44:40.922Z,38
2022-08-28T02:47:13.599Z,38
2022-08-28T02:49:46.418Z,37
2022-08-28T02:52:18.759Z,41
2022-08-28T02:54:51.641Z,40
2022-08-28T02:57:24.313Z,40
2022-08-28T02:59:56.583Z,41
2022-08-28T03:02:29.615Z,41
2022-08-28T03:05:01.690Z,40
2022-08-28T03:07:33.486Z,39
2022-08-28T03:10:05.641Z,39
2022-08-28T03:12:38.250Z,40
2022-08-28T03:15:10.342Z,39
2022-08-28T03:17:43.430Z,36
2022-08-28T03:20:16.268Z,37
2022-08-28T03:22:49.051Z,41
2022-08-28T03:25:21.550Z,40
2022-08-28T03:27:54.723Z,44
2022-08-28T03:30:25.950Z,42
2022-08-28T03:32:58.401Z,36
2022-08-28T03:35:31.448Z,40
2022-08-28T03:38:04.943Z,38
2022-08-28T03:40:38.358Z,43
2022-08-28T03:43:11.249Z,38
2022-08-28T03:45:44.440Z,45
2022-08-28T03:48:16.977Z,39
2022-08-28T03:50:52.051Z,40
2022-08-28T03:53:24.613Z,52
2022-08-28T03:55:56.690Z,42
2022-08-28T03:58:29.701Z,40
2022-08-28T04:01:01.814Z,39
2022-08-28T04:03:34.581Z,39
2022-08-28T04:06:07.022Z,41
2022-08-28T04:08:40.283Z,35
2022-08-28T04:11:13.444Z,48
2022-08-28T04:13:46.094Z,41
2022-08-28T04:16:19.705Z,37
2022-08-28T04:18:52.099Z,49
2022-08-28T04:21:24.688Z,37
2022-08-28T04:23:58.022Z,34
2022-08-28T04:26:31.074Z,40
2022-08-28T04:29:04.359Z,38
2022-08-28T04:31:37.093Z,43
2022-08-28T04:34:10.408Z,39
2022-08-28T04:36:43.093Z,38
2022-08-28T04:39:16.148Z,44
2022-08-28T04:41:55.179Z,48
2022-08-28T04:44:28.344Z,44
2022-08-28T04:47:02.324Z,43
2022-08-28T04:49:34.020Z,40
2022-08-28T04:52:06.930Z,39
2022-08-28T04:54:40.174Z,44
2022-08-28T04:57:13.286Z,42
2022-08-28T04:59:45.808Z,44
2022-08-28T05:02:20.357Z,44
2022-08-28T05:04:53.408Z,51
2022-08-28T05:07:26.750Z,42
2022-08-28T05:09:59.980Z,39
2022-08-28T05:12:32.551Z,48
2022-08-28T05:15:05.288Z,50
2022-08-28T05:17:37.786Z,51
2022-08-28T05:20:11.138Z,51
2022-08-28T05:22:44.258Z,52
2022-08-28T05:25:17.067Z,59
2022-08-28T05:27:50.134Z,57
2022-08-28T05:30:23.192Z,51
2022-08-28T05:32:56.432Z,54
2022-08-28T05:35:29.628Z,52
2022-08-28T05:38:02.116Z,48
2022-08-28T05:40:35.227Z,49
2022-08-28T05:43:08.514Z,44
2022-08-28T05:45:41.134Z,45
2022-08-28T05:48:14.417Z,50
2022-08-28T05:50:48.464Z,46
2022-08-28T05:53:20.484Z,42
2022-08-28T05:55:53.604Z,43
2022-08-28T05:58:27.040Z,44
2022-08-28T06:01:00.385Z,43
2022-08-28T06:03:33.044Z,52
2022-08-28T06:06:05.864Z,51
2022-08-28T06:08:59.541Z,52
2022-08-28T06:11:31.504Z,52
2022-08-28T06:14:03.222Z,49
2022-08-28T06:16:36.070Z,49
2022-08-28T06:19:09.320Z,45
2022-08-28T06:21:42.220Z,45
2022-08-28T06:24:14.601Z,49
2022-08-28T06:26:47.318Z,41
2022-08-28T06:29:23.745Z,45
2022-08-28T06:31:56.355Z,45
2022-08-28T06:34:29.181Z,40
2022-08-28T06:37:01.680Z,41
2022-08-28T06:39:34.028Z,56
2022-08-28T06:42:07.767Z,52
2022-08-28T06:44:41.063Z,61
2022-08-28T06:47:13.955Z,52
2022-08-28T06:49:46.408Z,47
2022-08-28T06:52:19.107Z,43
2022-08-28T06:54:56.268Z,62
2022-08-28T06:57:27.555Z,47
2022-08-28T07:00:03.270Z,51
2022-08-28T07:02:35.336Z,46
2022-08-28T07:05:08.479Z,49
2022-08-28T07:07:42.146Z,49
2022-08-28T07:10:15.276Z,49
2022-08-28T07:12:48.385Z,57
2022-08-28T07:15:21.658Z,48
2022-08-28T07:17:55.068Z,48
2022-08-28T07:20:28.280Z,44
2022-08-28T07:23:01.349Z,39
2022-08-28T07:25:34.152Z,39
2022-08-28T07:28:07.477Z,44
2022-08-28T07:30:40.684Z,44
2022-08-28T07:33:13.382Z,52
2022-08-28T07:35:45.879Z,48
2022-08-28T07:38:18.716Z,49
2022-08-28T07:40:51.762Z,44
2022-08-28T07:43:26.211Z,49
2022-08-28T07:45:59.348Z,40
2022-08-28T07:48:33.892Z,39
2022-08-28T07:51:05.863Z,40
2022-08-28T07:53:38.544Z,38
2022-08-28T07:56:11.104Z,33
2022-08-28T07:58:43.582Z,47
2022-08-28T08:01:17.468Z,43
2022-08-28T08:04:02.264Z,44
2022-08-28T08:06:34.927Z,44
2022-08-28T08:09:07.244Z,46
2022-08-28T08:11:39.912Z,41
2022-08-28T08:14:12.828Z,36
2022-08-28T08:16:45.447Z,49
2022-08-28T08:19:18.086Z,44
2022-08-28T08:21:55.759Z,46
2022-08-28T08:24:27.640Z,49
2022-08-28T08:27:01.463Z,40
2022-08-28T08:29:40.520Z,47
2022-08-28T08:32:13.173Z,44
2022-08-28T08:34:45.782Z,42
2022-08-28T08:37:20.825Z,48
2022-08-28T08:39:53.767Z,48
2022-08-28T08:42:26.348Z,46
2022-08-28T08:44:59.003Z,47
2022-08-28T08:47:30.055Z,50
2022-08-28T08:50:02.301Z,47
2022-08-28T08:52:34.520Z,42
2022-08-28T08:55:06.946Z,43
2022-08-28T08:57:40.216Z,44
2022-08-28T09:00:16.605Z,46
2022-08-28T09:02:47.502Z,45
2022-08-28T09:05:20.177Z,40
2022-08-28T09:07:53.657Z,42
2022-08-28T09:10:25.965Z,47
2022-08-28T09:12:58.370Z,45
2022-08-28T09:15:30.840Z,41
2022-08-28T09:18:03.426Z,48
2022-08-28T09:20:36.042Z,40
2022-08-28T09:23:14.209Z,48
2022-08-28T09:25:45.953Z,43
2022-08-28T09:28:18.620Z,47
2022-08-28T09:30:51.490Z,35
2022-08-28T09:33:24.751Z,38
2022-08-28T09:36:01.050Z,40
2022-08-28T09:38:33.123Z,43
2022-08-28T09:41:05.560Z,36
2022-08-28T09:43:38.631Z,39
2022-08-28T09:46:11.902Z,43
2022-08-28T09:48:45.056Z,36
2022-08-28T09:51:17.179Z,40
2022-08-28T09:53:50.151Z,40
2022-08-28T09:56:22.867Z,41
2022-08-28T09:58:55.706Z,39
2022-08-28T10:01:29.033Z,34
2022-08-28T10:04:01.543Z,37
2022-08-28T10:06:34.396Z,41
2022-08-28T10:09:07.073Z,40
2022-08-28T10:11:44.781Z,36
2022-08-28T10:14:15.983Z,36
2022-08-28T10:16:48.833Z,34
2022-08-28T10:19:21.590Z,33
2022-08-28T10:21:53.898Z,40
2022-08-28T10:24:29.568Z,40
2022-08-28T10:27:01.800Z,38
2022-08-28T10:29:34.883Z,39
2022-08-28T10:32:08.103Z,34
2022-08-28T10:34:41.884Z,37
2022-08-28T10:37:15.288Z,38
2022-08-28T10:39:48.079Z,38
2022-08-28T10:42:21.319Z,35
2022-08-28T10:45:04.229Z,34
2022-08-28T10:47:37.421Z,40
2022-08-28T10:50:10.725Z,35
2022-08-28T10:52:43.855Z,40
2022-08-28T10:55:16.688Z,37
2022-08-28T10:57:49.758Z,40
2022-08-28T11:00:22.895Z,37
2022-08-28T11:02:56.260Z,40
2022-08-28T11:05:30.542Z,40
2022-08-28T11:08:02.897Z,40
2022-08-28T11:10:35.961Z,43
2022-08-28T11:13:09.538Z,39
2022-08-28T11:15:42.637Z,38
2022-08-28T11:18:15.687Z,35
2022-08-28T11:20:48.500Z,40
2022-08-28T11:23:22.221Z,44
2022-08-28T11:25:56.183Z,37
2022-08-28T11:28:29.199Z,45
2022-08-28T11:31:02.287Z,43
2022-08-28T11:33:35.260Z,43
2022-08-28T11:36:08.417Z,44
2022-08-28T11:38:41.834Z,36
2022-08-28T11:41:14.427Z,39
2022-08-28T11:43:48.165Z,36
2022-08-28T11:46:24.476Z,35
2022-08-28T11:48:56.285Z,35
2022-08-28T11:51:28.777Z,38
2022-08-28T11:54:02.049Z,40
2022-08-28T11:56:34.677Z,44
2022-08-28T11:59:10.099Z,44
2022-08-28T12:01:49.280Z,43
2022-08-28T12:04:21.541Z,40
2022-08-28T12:06:55.348Z,45
2022-08-28T12:09:27.561Z,45
2022-08-28T12:12:00.275Z,41
2022-08-28T12:14:33.041Z,48
2022-08-28T12:17:08.765Z,44
2022-08-28T12:19:56.584Z,37
2022-08-28T12:22:27.666Z,41
2022-08-28T12:25:00.304Z,44
2022-08-28T12:27:32.718Z,44
2022-08-28T12:30:05.055Z,44
2022-08-28T12:32:38.377Z,44
2022-08-28T12:35:11.065Z,60
2022-08-28T12:37:53.754Z,48
2022-08-28T12:40:25.221Z,53
2022-08-28T12:42:58.269Z,41
2022-08-28T12:45:30.792Z,47
2022-08-28T12:48:03.520Z,48
2022-08-28T12:50:35.753Z,48
2022-08-28T12:53:09.321Z,44
2022-08-28T12:55:41.991Z,48
2022-08-28T12:58:14.493Z,44
2022-08-28T13:00:47.045Z,45
2022-08-28T13:03:19.160Z,44
2022-08-28T13:05:51.995Z,44
2022-08-28T13:08:24.629Z,41
2022-08-28T13:10:57.591Z,41
2022-08-28T13:13:30.282Z,44
2022-08-28T13:16:02.536Z,41
2022-08-28T13:18:35.539Z,43
2022-08-28T13:21:08.436Z,36
2022-08-28T13:23:41.271Z,37
2022-08-28T13:26:21.465Z,33
2022-08-28T13:28:53.223Z,36
2022-08-28T13:31:25.839Z,35
2022-08-28T13:33:58.666Z,45
2022-08-28T13:36:31.913Z,40
2022-08-28T13:39:04.913Z,41
2022-08-28T13:41:38.498Z,39
2022-08-28T13:44:11.644Z,44
2022-08-28T13:46:44.536Z,42
2022-08-28T13:49:17.072Z,41
2022-08-28T13:51:51.659Z,44
2022-08-28T13:54:28.540Z,44
2022-08-28T13:57:00.223Z,34
2022-08-28T13:59:32.408Z,44
2022-08-28T14:02:04.562Z,43
2022-08-28T14:04:37.457Z,44
2022-08-28T14:07:10.362Z,40
2022-08-28T14:09:43.594Z,44
2022-08-28T14:12:16.188Z,44
2022-08-28T14:14:48.608Z,35
2022-08-28T14:17:21.498Z,40
2022-08-28T14:19:53.741Z,40
2022-08-28T14:22:25.602Z,37
2022-08-28T14:24:58.482Z,45
2022-08-28T14:27:30.762Z,44
2022-08-28T14:30:03.416Z,32
2022-08-28T14:32:37.444Z,40
2022-08-28T14:35:09.280Z,41
2022-08-28T14:37:41.431Z,43
2022-08-28T14:40:13.784Z,48
2022-08-28T14:42:46.277Z,36
2022-08-28T14:45:18.107Z,44
2022-08-28T14:47:50.625Z,47
2022-08-28T14:50:20.963Z,42
2022-08-28T14:52:52.917Z,40
2022-08-28T14:55:25.062Z,52
2022-08-28T14:57:57.617Z,37
2022-08-28T15:00:30.294Z,40
2022-08-28T15:03:01.841Z,47
2022-08-28T15:05:33.847Z,42
2022-08-28T15:08:06.677Z,38
2022-08-28T15:10:37.094Z,39
2022-08-28T15:13:09.440Z,40
2022-08-28T15:15:42.495Z,43
2022-08-28T15:18:15.227Z,44
2022-08-28T15:20:47.275Z,41
2022-08-28T15:23:19.241Z,42
2022-08-28T15:25:51.216Z,44
2022-08-28T15:28:23.567Z,36
2022-08-28T15:30:57.376Z,46
2022-08-28T15:33:30.042Z,48
2022-08-28T15:36:03.040Z,43
2022-08-28T15:38:35.185Z,48
2022-08-28T15:41:07.421Z,44
2022-08-28T15:43:48.167Z,44
2022-08-28T15:46:18.908Z,37
2022-08-28T15:48:56.870Z,36
2022-08-28T15:51:29.052Z,43
2022-08-28T15:53:59.631Z,40
2022-08-28T15:56:31.456Z,44
2022-08-28T15:59:03.734Z,43
2022-08-28T16:01:36.526Z,47
2022-08-28T16:04:08.525Z,44
2022-08-28T16:06:41.231Z,45
2022-08-28T16:09:13.867Z,48
2022-08-28T16:11:46.245Z,44
2022-08-28T16:14:21.838Z,46
2022-08-28T16:16:54.379Z,36
2022-08-28T16:19:27.533Z,44
2022-08-28T16:22:00.408Z,47
2022-08-28T16:24:33.173Z,56
2022-08-28T16:27:15.807Z,52
2022-08-28T16:29:53.200Z,47
2022-08-28T16:32:25.637Z,44
2022-08-28T16:34:58.754Z,52
2022-08-28T16:37:40.679Z,53
2022-08-28T16:40:15.379Z,48
2022-08-28T16:42:52.548Z,49
2022-08-28T16:45:23.259Z,58
2022-08-28T16:47:55.625Z,42
2022-08-28T16:50:28.199Z,48
2022-08-28T16:53:07.434Z,48
2022-08-28T16:55:38.626Z,44
2022-08-28T16:58:17.468Z,52
2022-08-28T17:00:56.382Z,49
2022-08-28T17:03:28.271Z,51
2022-08-28T17:06:00.951Z,51
2022-08-28T17:08:33.813Z,49
2022-08-28T17:11:06.311Z,52
2022-08-28T17:13:39.383Z,48
2022-08-28T17:16:12.011Z,46
2022-08-28T17:18:53.208Z,43
2022-08-28T17:21:23.993Z,52
2022-08-28T17:23:54.462Z,47
2022-08-28T17:26:27.545Z,41
2022-08-28T17:28:58.241Z,51
2022-08-28T17:31:31.439Z,48
2022-08-28T17:34:04.211Z,48
2022-08-28T17:36:36.937Z,48
2022-08-28T17:39:09.187Z,53
2022-08-28T17:41:41.765Z,50
2022-08-28T17:44:13.850Z,48
2022-08-28T17:46:46.929Z,51
2022-08-28T17:49:19.360Z,52
2022-08-28T17:51:52.318Z,52
2022-08-28T17:54:24.669Z,55
2022-08-28T17:56:57.473Z,52
2022-08-28T17:59:29.514Z,55
2022-08-28T18:02:00.752Z,56
2022-08-28T18:04:33.634Z,66
2022-08-28T18:07:06.090Z,63
2022-08-28T18:09:38.085Z,50
2022-08-28T18:12:13.131Z,56
2022-08-28T18:14:45.008Z,55
2022-08-28T18:17:17.812Z,60
2022-08-28T18:19:50.517Z,61
2022-08-28T18:22:30.193Z,56
2022-08-28T18:25:01.291Z,56
2022-08-28T18:27:34.065Z,56
2022-08-28T18:30:07.127Z,56
2022-08-28T18:32:39.725Z,59
2022-08-28T18:35:12.546Z,53
2022-08-28T18:37:43.173Z,56
2022-08-28T18:40:15.934Z,58
2022-08-28T18:42:48.548Z,52
2022-08-28T18:45:20.493Z,64
2022-08-28T18:47:52.469Z,52
2022-08-28T18:50:25.114Z,60
2022-08-28T18:52:57.839Z,56
2022-08-28T18:55:32.503Z,60
2022-08-28T18:58:07.486Z,63
2022-08-28T19:00:46.659Z,60
2022-08-28T19:03:19.553Z,59
2022-08-28T19:05:52.232Z,56
2022-08-28T19:08:25.074Z,56
2022-08-28T19:10:57.670Z,60
2022-08-28T19:13:30.372Z,56
2022-08-28T19:16:03.229Z,62
2022-08-28T19:18:35.940Z,60
2022-08-28T19:21:08.817Z,64
2022-08-28T19:23:56.847Z,58
2022-08-28T19:26:28.133Z,62
2022-08-28T19:29:01.014Z,69
2022-08-28T19:31:33.914Z,57
2022-08-28T19:34:06.734Z,60
2022-08-28T19:36:39.352Z,61
2022-08-28T19:39:11.934Z,58
2022-08-28T19:41:44.298Z,56
2022-08-28T19:44:16.894Z,65
2022-08-28T19:46:49.640Z,59
2022-08-28T19:49:22.541Z,54
2022-08-28T19:51:55.156Z,60
2022-08-28T19:54:27.822Z,64
2022-08-28T19:57:00.432Z,65
2022-08-28T19:59:33.306Z,60
2022-08-28T20:02:05.699Z,64
2022-08-28T20:04:38.451Z,53
2022-08-28T20:07:09.307Z,57
2022-08-28T20:09:41.822Z,60
2022-08-28T20:12:14.698Z,60
2022-08-28T20:14:46.721Z,63
2022-08-28T20:17:19.145Z,61
2022-08-28T20:19:51.940Z,64
2022-08-28T20:22:23.993Z,56
2022-08-28T20:24:57.330Z,70
2022-08-28T20:27:29.568Z,69
2022-08-28T20:30:11.609Z,59
2022-08-28T20:32:42.703Z,62
2022-08-28T20:35:15.069Z,72
2022-08-28T20:37:47.889Z,62
2022-08-28T20:40:20.817Z,68
2022-08-28T20:42:53.462Z,53
2022-08-28T20:45:25.407Z,39
2022-08-28T20:47:57.930Z,43
2022-08-28T20:50:31.040Z,52
2022-08-28T20:53:02.021Z,52
2022-08-28T20:55:34.249Z,41
2022-08-28T20:58:07.405Z,43
2022-08-28T21:00:39.605Z,44
2022-08-28T21:03:11.854Z,37
2022-08-28T21:05:52.359Z,43
2022-08-28T21:08:23.638Z,52
2022-08-28T21:10:56.240Z,41
2022-08-28T21:13:28.153Z,45
2022-08-28T21:16:04.671Z,40
2022-08-28T21:18:35.892Z,36
2022-08-28T21:21:11.339Z,40
2022-08-28T21:23:44.114Z,44
2022-08-28T21:26:17.541Z,41
2022-08-28T21:28:50.238Z,41
2022-08-28T21:31:22.934Z,33
2022-08-28T21:33:55.394Z,40
2022-08-28T21:36:27.234Z,47
2022-08-28T21:38:58.165Z,35
2022-08-28T21:41:30.160Z,35
2022-08-28T21:44:03.043Z,39
2022-08-28T21:46:35.230Z,33
2022-08-28T21:49:07.823Z,32
2022-08-28T21:51:40.130Z,33
2022-08-28T21:54:12.641Z,39
2022-08-28T21:56:44.504Z,41
2022-08-28T21:59:16.489Z,45
2022-08-28T22:01:49.025Z,36
2022-08-28T22:04:21.140Z,33
2022-08-28T22:06:53.326Z,33
2022-08-28T22:09:26.200Z,33
2022-08-28T22:11:58.438Z,31
2022-08-28T22:14:31.314Z,36
2022-08-28T22:17:12.198Z,33
2022-08-28T22:19:47.254Z,28
2022-08-28T22:22:18.480Z,34
2022-08-28T22:24:51.146Z,39
2022-08-28T22:27:24.410Z,31
2022-08-28T22:29:56.638Z,34
2022-08-28T22:32:29.367Z,31
2022-08-28T22:35:01.357Z,39
2022-08-28T22:37:34.004Z,37
2022-08-28T22:40:14.174Z,38
2022-08-28T22:42:45.645Z,26
2022-08-28T22:45:18.672Z,20
2022-08-28T22:47:54.221Z,21
2022-08-28T22:50:25.144Z,28
2022-08-28T22:52:57.968Z,24
2022-08-28T22:55:30.702Z,35
2022-08-28T22:58:03.604Z,40
2022-08-28T23:00:34.139Z,30
2022-08-28T23:03:06.697Z,30
2022-08-28T23:05:39.021Z,29
2022-08-28T23:08:12.025Z,23
2022-08-28T23:10:59.909Z,29
2022-08-28T23:13:30.734Z,20
2022-08-28T23:16:03.485Z,26
2022-08-28T23:19:13.081Z,27
2022-08-28T23:21:44.983Z,22
2022-08-28T23:24:17.395Z,26
2022-08-28T23:26:49.940Z,24
2022-08-28T23:29:22.653Z,22
2022-08-28T23:31:55.336Z,26
2022-08-28T23:34:29.305Z,24
2022-08-28T23:37:02.912Z,24
2022-08-28T23:39:34.774Z,27
2022-08-28T23:42:08.129Z,20
2022-08-28T23:44:40.497Z,20
2022-08-28T23:47:13.174Z,25
2022-08-28T23:49:45.725Z,32
2022-08-28T23:52:18.000Z,18
2022-08-28T23:54:50.770Z,16
2022-08-28T23:57:24.611Z,16
2022-08-28T23:59:56.648Z,20
